Skip to main content

NOAA/GLERL Met Station at Chicago, IL

Previous 3 Hours (2 minute increments)
See also Previous 5 Days (top of hour)
Jump down to Data
Switch to [English][Metric]
Zoom: Click and drag, Pan: shift-click and drag, Unzoom: double-click, Unzoom All




See also 1-day windrose plot


NOAA/GLERL Met Station at Chicago, IL

Previous 3 Hours (2 minute increments)
See also Previous 5 Days (top of hour only)
Jump up to Graphs
Switch to [English][Metric]
                  Wind  Wind  Wind   Air   Dew   Rel
                   Spd   Gst   Dir  Temp    Pt   Hum
YYYY-MM-DD   CDT   m/s   m/s   deg     C     C     %
2024-07-20 01:06   4.5   4.8   196  22.9  16.9  68.5
2024-07-20 01:04   4.5   4.8   197  22.8  16.8  68.5
2024-07-20 01:02   4.5   4.8   197  22.9  16.4  66.5
2024-07-20 01:00   4.9   5.1   197  22.9  16.3  65.9
2024-07-20 00:58   4.8   5.1   195  22.9  16.9  68.3
2024-07-20 00:56   4.7   5.2   191  22.9  16.6  67.3
2024-07-20 00:54   5.0   5.3   186  23.0  16.2  64.9
2024-07-20 00:52   5.0   5.3   185  23.0  16.2  65.2
2024-07-20 00:50   5.1   5.5   186  23.0  16.4  66.0
2024-07-20 00:48   5.0   5.4   186  23.0  16.4  65.9
2024-07-20 00:46   5.2   5.7   187  23.0  16.2  65.2
2024-07-20 00:44   5.0   5.4   184  22.9  16.3  65.9
2024-07-20 00:42   4.8   5.1   186  22.8  17.1  69.8
2024-07-20 00:40   5.2   5.7   180  22.6  17.5  72.4
2024-07-20 00:38   5.1   5.6   177  22.6  18.6  77.8
2024-07-20 00:36   5.0   5.7   174  22.5  18.6  78.5
2024-07-20 00:34   5.3   5.7   172  22.5  18.6  78.1
2024-07-20 00:32   5.0   5.6   174  22.5  18.7  78.6
2024-07-20 00:30   5.1   5.6   176  22.5  18.7  78.6
2024-07-20 00:28   5.2   5.7   174  22.5  18.6  78.2
2024-07-20 00:26   5.3   5.8   175  22.5  18.5  77.7
2024-07-20 00:24   5.2   5.8   170  22.6  18.4  76.8
2024-07-20 00:22   5.3   6.1   171  22.6  18.3  76.3
2024-07-20 00:20   5.4   6.0   172  22.6  17.9  74.3
2024-07-20 00:18   5.6   6.3   170  22.6  17.8  73.8
2024-07-20 00:16   5.4   6.0   170  22.6  17.7  73.4
2024-07-20 00:14   5.2   5.9   171  22.6  17.6  73.2
2024-07-20 00:12   5.6   6.2   168  22.6  17.3  71.4
2024-07-20 00:10   5.1   6.0   167  22.6  17.4  72.1
2024-07-20 00:08   5.2   5.6   165  22.6  17.0  70.4
2024-07-20 00:06   5.2   5.7   164  22.6  17.1  70.8
2024-07-20 00:04   5.4   6.3   164  22.6  16.8  69.4
2024-07-20 00:02   5.4   6.2   163  22.6  17.0  70.4
2024-07-20 00:00   5.4   6.4   165  22.5  16.9  70.2
2024-07-19 23:58   5.2   5.6   166  22.6  17.4  72.1
2024-07-19 23:56   5.3   6.0   168  22.6  16.8  69.5
2024-07-19 23:54   4.9   6.0   169  22.5  17.4  72.3
2024-07-19 23:52   4.9   6.2   162  22.5  17.1  71.2
2024-07-19 23:50   4.5   5.6   165  22.5  18.1  75.7
2024-07-19 23:48   3.8   5.3   158  22.5  17.9  74.7
2024-07-19 23:46   4.2   5.1   164  22.5  18.0  75.5
2024-07-19 23:44   5.2   6.1   158  22.4  17.2  71.8
2024-07-19 23:42   4.9   5.5   156  22.4  17.6  74.1
2024-07-19 23:40   4.4   5.2   161  22.4  18.0  75.8
2024-07-19 23:38   4.5   5.3   161  22.3  17.9  75.7
2024-07-19 23:36   4.1   5.0   159  22.4  17.9  75.5
2024-07-19 23:34   3.8   4.7   165  22.4  18.3  77.2
2024-07-19 23:32   4.4   5.0   154  22.3  17.8  75.2
2024-07-19 23:30   4.7   5.5   150  22.2  17.6  74.6
2024-07-19 23:28   3.6   4.7   159  22.3  18.6  79.0
2024-07-19 23:26   3.5   4.3   151  22.3  18.4  78.3
2024-07-19 23:24   4.5   5.2   150  22.3  17.8  75.2
2024-07-19 23:22   4.7   5.0   151  22.3  17.6  74.5
2024-07-19 23:20   4.5   5.1   151  22.2  17.5  74.5
2024-07-19 23:18   3.6   4.6   150  22.3  18.4  78.0
2024-07-19 23:16   3.5   4.4   150  22.3  18.3  77.7
2024-07-19 23:14   2.8   3.7   149  22.3  18.5  78.5
2024-07-19 23:12   2.5   3.7   150  22.3  18.4  78.0
2024-07-19 23:10   2.7   3.7   153  22.3  18.4  78.0
2024-07-19 23:08   3.5   4.2   157  22.3  18.1  76.6
2024-07-19 23:06   3.4   4.3   150  22.3  18.4  78.2
2024-07-19 23:04   4.1   4.6   150  22.3  18.0  76.1
2024-07-19 23:02   3.7   4.4   147  22.3  18.2  77.4
2024-07-19 23:00   4.0   4.5   141  22.3  18.1  76.8
2024-07-19 22:58   4.2   4.6   142  22.3  17.6  74.2
2024-07-19 22:56   3.9   4.5   144  22.3  18.0  76.1
2024-07-19 22:54   3.7   4.4   144  22.3  18.2  77.2
2024-07-19 22:52   3.7   4.0   148  22.3  17.9  75.8
2024-07-19 22:50   2.8   3.9   147  22.3  18.3  77.7
2024-07-19 22:48   3.0   3.7   148  22.3  18.0  76.5
2024-07-19 22:46   3.2   4.0   146  22.3  17.7  75.0
2024-07-19 22:44   3.7   3.9   143  22.3  17.8  75.2
2024-07-19 22:42   3.0   3.8   152  22.4  18.2  76.9
2024-07-19 22:40   2.5   3.6   153  22.3  18.0  76.2
2024-07-19 22:38   2.6   3.3   151  22.3  18.2  77.2
2024-07-19 22:36   2.5   3.2   147  22.3  18.3  77.7
2024-07-19 22:34   3.1   3.8   141  22.4  18.3  77.2
2024-07-19 22:32   3.7   4.0   142  22.3  17.8  75.3
2024-07-19 22:30   3.2   3.8   146  22.4  18.2  76.7
2024-07-19 22:28   3.1   3.8   150  22.4  18.0  76.0
2024-07-19 22:26   3.9   4.1   139  22.4  17.8  74.7
2024-07-19 22:24   4.0   4.2   137  22.4  17.9  75.3
2024-07-19 22:22   4.1   4.4   140  22.4  18.0  75.9
2024-07-19 22:20   4.4   4.6   140  22.4  17.7  74.3
2024-07-19 22:18   4.4   4.8   140  22.4  17.7  74.2
2024-07-19 22:16   4.3   4.9   142  22.4  17.7  74.3
2024-07-19 22:14   4.7   5.0   139  22.4  17.4  72.8
2024-07-19 22:12   4.4   5.0   138  22.4  17.4  72.8
2024-07-19 22:10   4.7   5.0   139  22.4  17.2  72.1
2024-07-19 22:08   4.5   5.2   143  22.4  17.5  73.5
2024-07-19 22:06   4.4   4.7   134  22.4  18.0  75.7